createdAt,value
2022-12-01T00:00:10.150Z,85.63
2022-12-01T00:05:31.739Z,85.49
2022-12-01T00:10:42.122Z,85.75
2022-12-01T00:16:01.484Z,86.31
2022-12-01T00:21:20.581Z,85.95
2022-12-01T00:26:39.900Z,85.82
2022-12-01T00:31:59.552Z,84.97
2022-12-01T00:37:19.180Z,85.24
2022-12-01T00:42:38.710Z,84.8
2022-12-01T00:47:57.659Z,84.47
2022-12-01T00:53:16.957Z,84.06
2022-12-01T00:58:35.557Z,83.52
2022-12-01T01:03:54.771Z,83.91
2022-12-01T01:09:13.784Z,83.96
2022-12-01T01:14:33.259Z,83.45
2022-12-01T01:19:53.153Z,84.18
2022-12-01T01:25:12.230Z,84.08
2022-12-01T01:30:32.039Z,84.58
2022-12-01T01:35:51.345Z,84.54
2022-12-01T01:41:10.855Z,84.37
2022-12-01T01:46:30.054Z,84.81
2022-12-01T01:51:49.232Z,84.2
2022-12-01T01:57:08.742Z,84.24
2022-12-01T02:02:28.253Z,84.09
2022-12-01T02:07:47.379Z,84.55
2022-12-01T02:13:06.823Z,83.8
2022-12-01T02:18:25.920Z,83.79
2022-12-01T02:23:45.512Z,84.68
2022-12-01T02:29:05.281Z,85.13
2022-12-01T02:34:24.108Z,85.5
2022-12-01T02:39:43.581Z,85.48
2022-12-01T02:45:03.255Z,86.24
2022-12-01T02:50:22.719Z,86.08
2022-12-01T02:55:42.079Z,86.23
2022-12-01T03:01:01.771Z,86.26
2022-12-01T03:06:20.974Z,86.52
2022-12-01T03:11:39.878Z,86.61
2022-12-01T03:16:59.340Z,86.91
2022-12-01T03:22:18.309Z,86.96
2022-12-01T03:27:37.583Z,87.06
2022-12-01T03:32:57.234Z,88.35
2022-12-01T03:38:16.985Z,86.49
2022-12-01T03:43:36.380Z,87.12
2022-12-01T03:48:56.198Z,87.26
2022-12-01T03:54:16.132Z,87.09
2022-12-01T03:59:35.230Z,87.23
2022-12-01T04:04:54.411Z,87.79
2022-12-01T04:10:13.570Z,87.73
2022-12-01T04:15:33.402Z,87.39
2022-12-01T04:20:52.975Z,86.88
2022-12-01T04:26:15.684Z,87.48
2022-12-01T04:31:31.730Z,86.9
2022-12-01T04:36:51.191Z,88.49
2022-12-01T04:42:10.718Z,88.5
2022-12-01T04:47:29.904Z,87.67
2022-12-01T04:52:49.562Z,87.34
2022-12-01T04:58:08.589Z,87.6
2022-12-01T05:03:27.469Z,88.77
2022-12-01T05:08:47.157Z,87.42
2022-12-01T05:14:06.764Z,87.63
2022-12-01T05:19:25.979Z,87.2
2022-12-01T05:24:45.076Z,87.55
2022-12-01T05:30:04.383Z,88.2
2022-12-01T05:35:23.328Z,88.5
2022-12-01T05:41:07.200Z,87.82
2022-12-01T05:46:26.282Z,88.2
2022-12-01T05:51:45.061Z,88.81
2022-12-01T05:57:03.909Z,89.08
2022-12-01T06:02:23.382Z,89.48
2022-12-01T06:07:42.368Z,89.3
2022-12-01T06:13:01.378Z,89.78
2022-12-01T06:18:21.208Z,89.94
2022-12-01T06:23:48.736Z,89.89
2022-12-01T06:29:00.278Z,90.26
2022-12-01T06:34:19.357Z,90.62
2022-12-01T06:39:38.254Z,90.53
2022-12-01T06:44:57.743Z,89.81
2022-12-01T06:50:16.983Z,90.12
2022-12-01T06:55:36.700Z,90.01
2022-12-01T07:00:56.471Z,90
2022-12-01T07:06:16.020Z,90.26
2022-12-01T07:11:35.434Z,90.76
2022-12-01T07:16:55.218Z,90.25
2022-12-01T07:22:14.705Z,89.61
2022-12-01T07:27:33.803Z,89.91
2022-12-01T07:32:52.854Z,90.59
2022-12-01T07:38:11.967Z,90.31
2022-12-01T07:43:31.278Z,90.55
2022-12-01T07:48:50.580Z,90.6
2022-12-01T07:54:10.050Z,89.88
2022-12-01T07:59:29.313Z,89.67
2022-12-01T08:04:48.990Z,90.55
2022-12-01T08:10:08.680Z,90.63
2022-12-01T08:15:28.479Z,90.1
2022-12-01T08:20:47.308Z,90.1
2022-12-01T08:26:06.126Z,89.38
2022-12-01T08:31:25.685Z,89.2
2022-12-01T08:36:44.765Z,89.46
2022-12-01T08:42:04.592Z,88.52
2022-12-01T08:47:24.202Z,88.48
2022-12-01T08:58:02.716Z,87.29
2022-12-01T09:03:22.281Z,87.74
2022-12-01T09:08:41.235Z,86.96
2022-12-01T09:14:00.619Z,86.66
2022-12-01T09:19:24.416Z,86.93
2022-12-01T09:24:39.162Z,86.47
2022-12-01T09:29:58.901Z,86.94
2022-12-01T09:35:22.084Z,87.19
2022-12-01T09:40:36.749Z,86.2
2022-12-01T09:45:55.880Z,85.2
2022-12-01T09:51:14.977Z,84.87
2022-12-01T09:56:34.755Z,84.35
2022-12-01T10:01:54.344Z,84.88
2022-12-01T10:07:13.733Z,84.51
2022-12-01T10:12:33.313Z,85.08
2022-12-01T10:17:52.849Z,83.5
2022-12-01T10:23:11.689Z,84.34
2022-12-01T10:28:30.562Z,83.33
2022-12-01T10:33:49.864Z,82.89
2022-12-01T10:39:09.147Z,82.07
2022-12-01T10:44:28.789Z,80.35
2022-12-01T10:49:48.648Z,79.31
2022-12-01T10:55:07.814Z,81.12
2022-12-01T11:00:57.841Z,81.83
2022-12-01T11:05:46.052Z,82.36
2022-12-01T11:11:06.313Z,82.24
2022-12-01T11:16:25.601Z,81.76
2022-12-01T11:21:44.761Z,82.25
2022-12-01T11:27:03.624Z,81.58
2022-12-01T11:32:23.173Z,81.97
2022-12-01T11:37:42.077Z,82.27
2022-12-01T11:43:01.260Z,82.55
2022-12-01T11:48:20.310Z,80.94
2022-12-01T11:53:39.341Z,81.36
2022-12-01T11:58:59.033Z,81.18
2022-12-01T12:04:18.253Z,80.08
2022-12-01T12:09:41.828Z,76.99
2022-12-01T12:14:57.288Z,77.61
2022-12-01T12:20:16.822Z,77.44
2022-12-01T12:25:35.847Z,78.57
2022-12-01T12:30:55.452Z,80.32
2022-12-01T12:36:15.172Z,80.37
2022-12-01T12:41:33.960Z,80.01
2022-12-01T12:46:53.183Z,79.74
2022-12-01T12:52:12.912Z,79.44
2022-12-01T12:57:31.693Z,79.85
2022-12-01T13:02:51.019Z,79.76
2022-12-01T13:08:09.844Z,78.65
2022-12-01T13:13:28.667Z,78.4
2022-12-01T13:18:47.378Z,78.61
2022-12-01T13:24:07.006Z,79.3
2022-12-01T13:29:25.779Z,78.72
2022-12-01T13:34:45.273Z,79.15
2022-12-01T13:40:04.988Z,78.94
2022-12-01T13:45:23.960Z,79.91
2022-12-01T13:50:43.373Z,79.19
2022-12-01T13:56:03.100Z,80.01
2022-12-01T14:01:23.071Z,80.56
2022-12-01T14:06:41.732Z,79.12
2022-12-01T14:12:00.648Z,80.21
2022-12-01T14:17:19.724Z,80.12
2022-12-01T14:22:39.354Z,80.39
2022-12-01T14:27:58.870Z,79.56
2022-12-01T14:33:18.589Z,80.53
2022-12-01T14:38:38.341Z,80.6
2022-12-01T14:43:56.717Z,81.58
2022-12-01T14:49:16.160Z,81.85
2022-12-01T14:54:34.977Z,81.82
2022-12-01T14:59:54.536Z,82.06
2022-12-01T15:05:13.543Z,82.7
2022-12-01T15:10:32.779Z,82.72
2022-12-01T15:15:51.636Z,83.37
2022-12-01T15:21:11.067Z,83.3
2022-12-01T15:26:30.453Z,84.51
2022-12-01T15:31:49.485Z,84.16
2022-12-01T15:37:08.761Z,84.86
2022-12-01T15:42:28.262Z,85.71
2022-12-01T15:47:47.895Z,85.41
2022-12-01T15:53:07.589Z,85.48
2022-12-01T15:58:26.788Z,85.73
2022-12-01T16:03:45.782Z,85.97
2022-12-01T16:09:05.537Z,86.33
2022-12-01T16:14:24.358Z,86.31
2022-12-01T16:19:43.747Z,86.61
2022-12-01T16:25:02.798Z,86.59
2022-12-01T16:30:22.317Z,86.5
2022-12-01T16:35:41.422Z,86.66
2022-12-01T16:41:00.357Z,86.88
2022-12-01T16:46:19.604Z,87.03
2022-12-01T16:51:54.602Z,87.59
2022-12-01T16:56:58.689Z,87.39
2022-12-01T17:02:19.210Z,86.98
2022-12-01T17:07:38.813Z,86.9
2022-12-01T17:12:57.114Z,87.38
2022-12-01T17:18:16.346Z,87.51
2022-12-01T17:23:35.935Z,87.62
2022-12-01T17:28:55.321Z,87.39
2022-12-01T17:34:14.458Z,87.08
2022-12-01T17:39:33.520Z,87.3
2022-12-01T17:44:52.860Z,86.92
2022-12-01T17:50:12.055Z,87.17
2022-12-01T17:55:31.278Z,87.57
2022-12-01T18:00:50.795Z,87.54
2022-12-01T18:06:10.074Z,87.55
2022-12-01T18:11:29.195Z,87.5
2022-12-01T18:16:48.265Z,87.36
2022-12-01T18:22:07.678Z,87.72
2022-12-01T18:27:26.614Z,87.46
2022-12-01T18:32:45.511Z,87.61
2022-12-01T18:38:05.158Z,87.76
2022-12-01T18:43:24.623Z,87.95
2022-12-01T18:48:44.049Z,88.16
2022-12-01T18:54:03.261Z,88
2022-12-01T18:59:22.613Z,87.73
2022-12-01T19:04:42.041Z,87.61
2022-12-01T19:10:00.799Z,87.35
2022-12-01T19:15:27.845Z,87.52
2022-12-01T19:20:38.743Z,87.33
2022-12-01T19:25:58.163Z,86.99
2022-12-01T19:31:17.543Z,87.58
2022-12-01T19:36:36.867Z,87.63
2022-12-01T19:41:56.309Z,87.54
2022-12-01T19:47:19.119Z,87.28
2022-12-01T19:52:35.537Z,88.02
2022-12-01T19:57:54.489Z,88.03
2022-12-01T20:03:14.266Z,88.2
2022-12-01T20:08:35.837Z,88.37
2022-12-01T20:13:53.300Z,87.86
2022-12-01T20:19:12.620Z,88.27
2022-12-01T20:24:31.944Z,88.16
2022-12-01T20:29:50.802Z,87.66
2022-12-01T20:35:10.556Z,87.32
2022-12-01T20:40:29.414Z,87.25
2022-12-01T20:45:49.229Z,86.81
2022-12-01T20:51:08.406Z,86.89
2022-12-01T20:56:27.302Z,86.98
2022-12-01T21:01:46.913Z,86.95
2022-12-01T21:07:06.424Z,86.9
2022-12-01T21:12:25.854Z,86.97
2022-12-01T21:17:44.963Z,87.14
2022-12-01T21:23:03.809Z,87.25
2022-12-01T21:28:23.215Z,87.55
2022-12-01T21:33:42.143Z,87.34
2022-12-01T21:39:01.920Z,87.42
2022-12-01T21:44:21.104Z,87.46
2022-12-01T21:49:40.729Z,87.46
2022-12-01T21:55:00.090Z,87.54
2022-12-01T22:00:19.204Z,87.89
2022-12-01T22:06:01.389Z,88.4
2022-12-01T22:10:57.710Z,88.64
2022-12-01T22:16:17.177Z,88.72
2022-12-01T22:21:36.814Z,88.75
2022-12-01T22:26:55.408Z,88.9
2022-12-01T22:32:15.134Z,89.08
2022-12-01T22:37:35.194Z,89.24
2022-12-01T22:42:54.496Z,89.27
2022-12-01T22:48:14.245Z,89.51
2022-12-01T22:53:33.449Z,89.53
2022-12-01T22:58:52.904Z,88.7
2022-12-01T23:04:13.371Z,88.87
2022-12-01T23:09:31.919Z,89.58
2022-12-01T23:14:51.224Z,88.85
2022-12-01T23:20:10.781Z,89.03
2022-12-01T23:25:55.241Z,89.84
2022-12-01T23:31:14.408Z,89.69
2022-12-01T23:36:33.594Z,89.46
2022-12-01T23:41:52.797Z,89.44
2022-12-01T23:47:12.496Z,89.61
2022-12-01T23:52:32.120Z,89.87
2022-12-01T23:57:51.066Z,90
